Time;durP1;ratioP1;P1;durP2;ratioP2;P2;SDS_P1;SDS_P2;PMS_P1;PMS_P2;Temp;Humidity;BMP_temperature;BMP_pressure;BME280_temperature;BME280_humidity;BME280_pressure;Samples;Min_cycle;Max_cycle;Signal;HPM_P1;HPM_P2
2022/06/06 00:01:46;;;;;;;0.30;0.30;;;13.80;99.90;;;;;;5114045;28;20433;-69
2022/06/06 00:04:12;;;;;;;0.30;0.30;;;13.80;99.90;;;;;;5113672;28;20406;-70
2022/06/06 00:06:39;;;;;;;0.37;0.37;;;13.90;99.90;;;;;;5114022;28;20502;-69
2022/06/06 00:09:06;;;;;;;0.30;0.30;;;14.00;99.90;;;;;;5113963;28;20431;-68
2022/06/06 00:11:33;;;;;;;0.30;0.30;;;13.90;99.90;;;;;;5113827;28;20808;-68
2022/06/06 00:13:59;;;;;;;0.30;0.30;;;14.00;99.90;;;;;;5113917;28;20856;-68
2022/06/06 00:16:25;;;;;;;0.30;0.30;;;14.10;99.90;;;;;;5113975;28;20407;-69
2022/06/06 00:18:50;;;;;;;0.30;0.30;;;14.10;99.90;;;;;;5113994;28;20402;-69
2022/06/06 00:21:16;;;;;;;0.37;0.37;;;14.10;99.90;;;;;;5113697;28;20192;-68
2022/06/06 00:23:42;;;;;;;0.30;0.30;;;14.10;99.90;;;;;;5113558;28;20636;-69
2022/06/06 00:26:10;;;;;;;0.30;0.30;;;14.20;99.90;;;;;;5113961;28;20274;-69
2022/06/06 00:28:37;;;;;;;0.80;0.80;;;14.20;99.90;;;;;;5113929;28;20160;-68
2022/06/06 00:34:48;;;;;;;0.30;0.30;;;14.10;99.90;;;;;;5115398;28;20405;-69
2022/06/06 00:36:35;;;;;;;0.30;0.30;;;14.20;99.90;;;;;;5117753;28;20416;-69
2022/06/06 00:39:02;;;;;;;0.30;0.30;;;14.30;99.90;;;;;;5117739;28;20762;-70
2022/06/06 00:41:28;;;;;;;0.30;0.30;;;14.30;99.90;;;;;;5117625;28;20421;-70
2022/06/06 00:44:31;;;;;;;0.40;0.40;;;14.30;99.90;;;;;;5117326;28;20408;-69
2022/06/06 00:47:08;;;;;;;0.30;0.30;;;14.40;99.90;;;;;;5095557;28;20223;-67
2022/06/06 00:49:38;;;;;;;0.30;0.30;;;14.50;99.90;;;;;;5117607;28;20436;-69
2022/06/06 00:52:09;;;;;;;0.30;0.30;;;14.60;99.90;;;;;;5117051;28;20418;-69
2022/06/06 00:54:35;;;;;;;0.30;0.30;;;14.60;99.90;;;;;;5117544;28;20402;-69
2022/06/06 00:57:07;;;;;;;0.30;0.30;;;14.70;99.90;;;;;;5117345;28;20409;-68
2022/06/06 00:59:36;;;;;;;0.60;0.60;;;14.70;99.90;;;;;;5117341;28;20497;-69
2022/06/06 01:02:02;;;;;;;0.30;0.30;;;14.80;99.90;;;;;;5117002;28;20420;-68
2022/06/06 01:04:30;;;;;;;0.30;0.30;;;14.80;99.90;;;;;;5117491;28;20463;-70
2022/06/06 01:06:57;;;;;;;0.30;0.30;;;14.80;99.90;;;;;;5117009;28;20495;-70
2022/06/06 01:09:25;;;;;;;0.30;0.30;;;14.80;99.90;;;;;;5117266;28;20442;-69
2022/06/06 01:12:04;;;;;;;0.30;0.30;;;14.90;99.90;;;;;;5116876;28;20466;-69
2022/06/06 01:14:36;;;;;;;0.40;0.40;;;14.90;99.90;;;;;;5116890;28;20483;-69
2022/06/06 01:17:25;;;;;;;0.30;0.30;;;14.90;99.90;;;;;;5117112;28;20500;-70
2022/06/06 01:20:06;;;;;;;0.30;0.30;;;14.80;99.90;;;;;;5117013;28;20406;-69
2022/06/06 01:23:05;;;;;;;0.30;0.30;;;14.90;99.90;;;;;;5116572;28;20444;-69
2022/06/06 01:26:08;;;;;;;0.30;0.30;;;14.90;99.90;;;;;;5116825;28;20797;-68
2022/06/06 01:28:53;;;;;;;0.30;0.30;;;14.90;99.90;;;;;;5116704;28;20393;-68
2022/06/06 01:31:43;;;;;;;0.30;0.30;;;15.00;99.90;;;;;;5116664;28;20417;-68
2022/06/06 01:34:12;;;;;;;0.30;0.30;;;15.00;99.90;;;;;;5116436;28;20906;-70
2022/06/06 01:36:40;;;;;;;0.30;0.30;;;15.00;99.90;;;;;;5116551;28;20521;-69
2022/06/06 01:39:11;;;;;;;0.37;0.37;;;15.00;99.90;;;;;;5116517;28;20959;-70
2022/06/06 01:41:45;;;;;;;0.30;0.30;;;15.00;99.90;;;;;;5115934;28;20410;-69
2022/06/06 01:45:01;;;;;;;0.40;0.40;;;14.90;99.90;;;;;;5115763;28;20488;-69
2022/06/06 01:47:32;;;;;;;0.30;0.30;;;15.00;99.90;;;;;;5073637;28;20908;-69
2022/06/06 01:49:59;;;;;;;0.30;0.30;;;15.00;99.90;;;;;;5108873;28;20421;-67
2022/06/06 01:52:25;;;;;;;0.40;0.40;;;15.00;99.90;;;;;;5115959;28;20418;-68
2022/06/06 01:54:56;;;;;;;0.40;0.40;;;15.00;99.90;;;;;;5116153;28;20436;-69
2022/06/06 01:57:23;;;;;;;0.30;0.30;;;15.00;99.90;;;;;;5115981;28;20404;-69
2022/06/06 01:59:51;;;;;;;0.30;0.30;;;15.00;99.90;;;;;;5116317;28;20424;-69
2022/06/06 02:02:18;;;;;;;0.30;0.30;;;14.90;99.90;;;;;;5115955;28;20820;-68
2022/06/06 02:04:44;;;;;;;0.83;0.83;;;14.90;99.90;;;;;;5116094;28;20407;-68
2022/06/06 02:07:10;;;;;;;0.40;0.40;;;14.80;99.90;;;;;;5115826;27;20445;-68
2022/06/06 02:09:36;;;;;;;0.30;0.30;;;14.80;99.90;;;;;;5116088;28;20400;-68
2022/06/06 02:12:02;;;;;;;0.30;0.30;;;14.90;99.90;;;;;;5115517;28;20422;-68
2022/06/06 02:14:28;;;;;;;0.30;0.30;;;14.90;99.90;;;;;;5115712;28;20894;-69
2022/06/06 02:16:54;;;;;;;0.30;0.30;;;14.90;99.90;;;;;;5115954;28;20394;-70
2022/06/06 02:19:20;;;;;;;0.30;0.30;;;14.90;99.90;;;;;;5115825;28;20405;-70
2022/06/06 02:21:46;;;;;;;0.30;0.30;;;15.00;99.90;;;;;;5115542;28;20422;-69
2022/06/06 02:24:12;;;;;;;0.30;0.30;;;15.00;99.90;;;;;;5114262;28;20442;-69
2022/06/06 02:26:38;;;;;;;0.30;0.30;;;15.00;99.90;;;;;;5115790;28;20671;-70
2022/06/06 02:29:05;;;;;;;0.30;0.30;;;15.00;99.90;;;;;;5115583;28;20466;-69
2022/06/06 02:31:37;;;;;;;0.30;0.30;;;14.90;99.90;;;;;;5115439;28;20497;-69
2022/06/06 02:34:04;;;;;;;0.50;0.50;;;14.90;99.90;;;;;;5115248;28;20387;-70
2022/06/06 02:36:30;;;;;;;0.30;0.30;;;14.80;99.90;;;;;;5115338;27;20812;-69
2022/06/06 02:38:56;;;;;;;0.30;0.30;;;14.80;99.90;;;;;;5115347;28;20398;-70
2022/06/06 02:41:24;;;;;;;0.30;0.30;;;14.80;99.90;;;;;;5115211;28;20189;-70
2022/06/06 02:43:50;;;;;;;0.30;0.30;;;14.80;99.90;;;;;;5115223;28;20259;-67
2022/06/06 02:46:16;;;;;;;0.30;0.30;;;14.80;99.90;;;;;;5115191;28;20441;-70
2022/06/06 02:48:42;;;;;;;0.30;0.30;;;14.80;99.90;;;;;;5115235;28;20410;-68
2022/06/06 02:51:07;;;;;;;0.30;0.30;;;14.80;99.90;;;;;;5114970;28;20171;-69
2022/06/06 02:53:33;;;;;;;0.30;0.30;;;14.80;99.90;;;;;;5114786;28;20179;-69
2022/06/06 02:55:59;;;;;;;1.53;1.43;;;14.80;99.90;;;;;;5115037;28;20174;-69
2022/06/06 02:58:27;;;;;;;0.30;0.30;;;14.70;99.90;;;;;;5115046;28;20205;-69
2022/06/06 03:01:04;;;;;;;0.40;0.40;;;14.70;99.90;;;;;;5115015;28;20401;-69
2022/06/06 03:03:30;;;;;;;0.30;0.30;;;14.60;99.90;;;;;;5114737;28;20402;-68
2022/06/06 03:06:05;;;;;;;0.30;0.30;;;14.70;99.90;;;;;;5114844;28;20491;-69
2022/06/06 03:08:48;;;;;;;0.30;0.30;;;14.60;99.90;;;;;;5114906;28;20737;-70
2022/06/06 03:11:57;;;;;;;0.30;0.30;;;14.90;99.90;;;;;;5114817;28;20400;-68
2022/06/06 03:14:37;;;;;;;0.30;0.30;;;14.70;99.90;;;;;;5114501;28;20400;-69
2022/06/06 03:23:00;;;;;;;0.47;0.47;;;14.90;99.90;;;;;;5114151;28;20845;-68
2022/06/06 03:25:43;;;;;;;0.30;0.30;;;14.90;99.90;;;;;;5114437;28;20404;-69
2022/06/06 03:28:34;;;;;;;0.30;0.30;;;14.90;99.90;;;;;;5114536;28;20409;-69
2022/06/06 03:31:21;;;;;;;0.30;0.30;;;14.80;99.90;;;;;;5109221;28;20413;-68
2022/06/06 03:33:58;;;;;;;0.30;0.30;;;14.80;99.90;;;;;;5114404;28;20460;-70
2022/06/06 03:36:38;;;;;;;0.33;0.33;;;14.80;99.90;;;;;;5114426;28;20405;-69
2022/06/06 03:39:14;;;;;;;0.30;0.30;;;14.90;99.90;;;;;;5114344;28;20399;-68
2022/06/06 03:41:50;;;;;;;0.40;0.40;;;14.90;99.90;;;;;;5114283;28;20447;-69
2022/06/06 03:44:24;;;;;;;0.90;0.90;;;14.80;99.90;;;;;;5114167;28;20401;-69
2022/06/06 03:47:02;;;;;;;1.00;0.93;;;14.80;99.90;;;;;;5114063;28;20446;-69
2022/06/06 03:49:48;;;;;;;0.30;0.30;;;14.80;99.90;;;;;;5114165;28;20463;-69
2022/06/06 03:52:27;;;;;;;0.30;0.30;;;14.80;99.90;;;;;;5113780;28;20436;-69
2022/06/06 03:55:12;;;;;;;0.30;0.30;;;14.80;99.90;;;;;;5114214;28;20404;-70
2022/06/06 03:57:39;;;;;;;0.30;0.30;;;14.80;99.90;;;;;;5114249;28;20442;-70
2022/06/06 04:00:12;;;;;;;0.30;0.30;;;14.70;99.90;;;;;;5114277;28;20434;-69
2022/06/06 04:02:39;;;;;;;0.30;0.30;;;14.60;99.90;;;;;;5113892;28;20423;-69
2022/06/06 04:05:09;;;;;;;0.30;0.30;;;14.60;99.90;;;;;;5114103;28;20411;-69
2022/06/06 04:07:35;;;;;;;0.40;0.40;;;14.60;99.90;;;;;;5118045;28;20521;-69
2022/06/06 04:10:02;;;;;;;0.30;0.30;;;14.50;99.90;;;;;;5118185;28;20831;-70
2022/06/06 04:12:52;;;;;;;0.30;0.30;;;14.50;99.90;;;;;;5117981;28;20502;-70
2022/06/06 04:15:17;;;;;;;0.30;0.30;;;14.50;99.90;;;;;;5118335;28;20405;-69
2022/06/06 04:18:14;;;;;;;0.40;0.40;;;14.40;99.90;;;;;;5118239;28;20407;-69
2022/06/06 04:21:18;;;;;;;0.30;0.30;;;14.40;99.90;;;;;;5117310;28;20260;-69
2022/06/06 04:24:02;;;;;;;0.30;0.30;;;14.40;99.90;;;;;;5113182;28;20882;-70
2022/06/06 04:26:40;;;;;;;0.30;0.30;;;14.40;99.90;;;;;;5117927;28;20445;-68
2022/06/06 04:29:09;;;;;;;0.30;0.30;;;14.40;99.90;;;;;;5117846;28;20421;-69
2022/06/06 04:31:47;;;;;;;0.30;0.30;;;14.40;99.90;;;;;;5117681;28;20426;-70
2022/06/06 04:34:23;;;;;;;0.30;0.30;;;14.40;99.90;;;;;;5117677;28;20393;-68
2022/06/06 04:37:07;;;;;;;0.70;0.70;;;14.40;99.90;;;;;;5117791;28;20439;-68
2022/06/06 04:39:48;;;;;;;0.30;0.30;;;14.40;99.90;;;;;;5117794;28;20441;-69
2022/06/06 04:42:22;;;;;;;0.63;0.60;;;14.40;99.90;;;;;;5117460;28;20929;-69
2022/06/06 04:45:04;;;;;;;0.30;0.30;;;14.50;99.90;;;;;;5116412;28;20924;-69
2022/06/06 04:47:38;;;;;;;0.30;0.30;;;14.80;99.90;;;;;;5117349;28;20959;-70
2022/06/06 04:50:07;;;;;;;1.33;1.33;;;15.20;99.90;;;;;;5117446;28;20401;-70
2022/06/06 04:52:36;;;;;;;0.30;0.30;;;15.90;99.90;;;;;;5117033;28;20429;-70
2022/06/06 04:55:03;;;;;;;0.60;0.60;;;16.50;99.90;;;;;;5117525;28;20425;-70
2022/06/06 04:57:30;;;;;;;0.30;0.30;;;16.90;99.90;;;;;;5117474;28;20409;-68
2022/06/06 04:59:58;;;;;;;0.30;0.30;;;17.40;99.90;;;;;;5117593;27;20414;-69
2022/06/06 05:02:25;;;;;;;0.37;0.37;;;17.90;99.90;;;;;;5116910;28;20435;-69
2022/06/06 05:04:51;;;;;;;0.30;0.30;;;18.40;99.90;;;;;;5117061;28;20412;-69
2022/06/06 05:07:40;;;;;;;0.30;0.30;;;18.80;99.90;;;;;;5117073;28;20780;-69
2022/06/06 05:10:40;;;;;;;0.47;0.47;;;19.00;99.90;;;;;;5117201;27;20167;-69
2022/06/06 05:13:31;;;;;;;0.30;0.30;;;19.00;99.90;;;;;;5116829;28;20419;-69
2022/06/06 05:16:24;;;;;;;0.30;0.30;;;18.90;99.90;;;;;;5112087;28;20421;-69
2022/06/06 05:18:59;;;;;;;0.40;0.40;;;18.80;99.90;;;;;;5117293;28;20417;-70
2022/06/06 05:21:40;;;;;;;0.30;0.30;;;18.60;99.90;;;;;;5116732;28;20424;-69
2022/06/06 05:24:12;;;;;;;0.30;0.30;;;18.50;99.90;;;;;;5116643;28;20421;-70
2022/06/06 05:26:58;;;;;;;0.30;0.30;;;18.60;99.90;;;;;;5116829;28;20444;-69
2022/06/06 05:29:49;;;;;;;0.30;0.30;;;18.70;99.90;;;;;;5116879;28;20772;-69
2022/06/06 05:32:50;;;;;;;0.40;0.40;;;18.80;99.90;;;;;;5116091;28;20441;-68
2022/06/06 05:35:53;;;;;;;0.30;0.30;;;18.90;99.90;;;;;;5073705;28;20469;-69
2022/06/06 05:38:28;;;;;;;0.30;0.30;;;18.80;99.90;;;;;;5116568;28;20405;-69
2022/06/06 05:41:17;;;;;;;0.50;0.50;;;18.90;99.90;;;;;;5116455;28;20888;-68
2022/06/06 05:44:07;;;;;;;0.30;0.30;;;19.20;99.50;;;;;;5116145;28;20842;-70
2022/06/06 05:46:39;;;;;;;0.30;0.30;;;19.20;98.80;;;;;;5116309;28;20536;-70
2022/06/06 05:49:04;;;;;;;0.30;0.30;;;19.10;99.00;;;;;;5116371;28;20397;-69
2022/06/06 05:51:54;;;;;;;0.40;0.40;;;19.10;99.00;;;;;;5116334;28;20501;-69
2022/06/06 05:54:41;;;;;;;0.60;0.60;;;19.00;98.90;;;;;;5116062;28;20203;-69
2022/06/06 05:57:22;;;;;;;2.53;2.23;;;18.60;98.00;;;;;;5116498;28;20411;-69
2022/06/06 06:00:16;;;;;;;0.30;0.30;;;18.60;99.30;;;;;;5116268;28;20804;-68
2022/06/06 06:03:03;;;;;;;0.30;0.30;;;18.90;99.60;;;;;;5115916;28;20852;-69
2022/06/06 06:06:02;;;;;;;0.30;0.30;;;19.40;99.20;;;;;;5115984;27;20881;-70
2022/06/06 06:08:59;;;;;;;0.73;0.60;;;19.40;97.60;;;;;;5116100;28;20445;-68
2022/06/06 06:11:30;;;;;;;0.57;0.57;;;19.20;98.50;;;;;;5115805;28;20421;-70
2022/06/06 06:14:14;;;;;;;0.30;0.30;;;19.40;98.60;;;;;;5115686;28;20421;-69
2022/06/06 06:16:45;;;;;;;0.40;0.40;;;19.50;97.90;;;;;;5115931;28;20443;-69
2022/06/06 06:19:23;;;;;;;0.40;0.40;;;19.60;97.40;;;;;;5115927;28;20477;-69
2022/06/06 06:21:54;;;;;;;0.50;0.50;;;19.80;97.80;;;;;;5114267;28;20569;-70
2022/06/06 06:24:30;;;;;;;0.40;0.40;;;19.90;98.10;;;;;;5115491;28;20429;-69
2022/06/06 06:26:57;;;;;;;0.40;0.40;;;20.00;97.20;;;;;;5115602;28;20449;-69
2022/06/06 06:29:23;;;;;;;0.30;0.30;;;20.10;97.00;;;;;;5115011;28;20406;-69
2022/06/06 06:31:57;;;;;;;0.30;0.30;;;20.30;96.70;;;;;;5115542;28;20540;-69
2022/06/06 06:34:44;;;;;;;0.30;0.30;;;20.30;97.30;;;;;;5115347;28;20480;-70
2022/06/06 06:37:31;;;;;;;0.30;0.30;;;20.50;97.30;;;;;;5115492;28;20391;-69
2022/06/06 06:40:21;;;;;;;0.30;0.30;;;20.40;95.00;;;;;;5115497;28;20447;-70
2022/06/06 06:43:18;;;;;;;0.30;0.30;;;20.40;95.30;;;;;;5114979;28;20423;-68
2022/06/06 06:45:51;;;;;;;0.30;0.30;;;21.00;95.60;;;;;;5115257;28;20494;-69
2022/06/06 06:48:34;;;;;;;0.30;0.30;;;21.90;93.60;;;;;;5115130;28;20387;-69
2022/06/06 06:51:12;;;;;;;0.30;0.30;;;23.00;91.70;;;;;;5115463;28;20405;-70
2022/06/06 06:54:02;;;;;;;0.53;0.53;;;23.70;90.00;;;;;;5114991;28;20398;-70
2022/06/06 06:56:48;;;;;;;0.30;0.30;;;23.90;91.10;;;;;;5115141;28;20735;-70
2022/06/06 06:59:56;;;;;;;0.30;0.30;;;24.70;86.60;;;;;;5113479;28;20430;-69
2022/06/06 07:08:35;;;;;;;0.30;0.30;;;24.40;81.30;;;;;;5114444;28;20416;-68
2022/06/06 07:11:28;;;;;;;0.30;0.30;;;23.70;83.30;;;;;;5114756;28;20454;-70
2022/06/06 07:14:13;;;;;;;0.30;0.30;;;23.20;83.70;;;;;;5114586;28;20390;-70
2022/06/06 07:16:40;;;;;;;0.30;0.30;;;22.60;88.70;;;;;;5114791;28;20372;-70
2022/06/06 07:19:12;;;;;;;0.30;0.30;;;22.40;92.20;;;;;;5115206;28;20425;-71
2022/06/06 07:21:39;;;;;;;0.40;0.40;;;22.90;91.20;;;;;;5114703;28;20418;-69
2022/06/06 07:24:08;;;;;;;0.30;0.30;;;23.20;87.50;;;;;;5114093;28;20397;-69
2022/06/06 07:26:41;;;;;;;0.40;0.40;;;22.80;89.90;;;;;;5114423;28;20920;-69
2022/06/06 07:29:08;;;;;;;0.30;0.30;;;22.60;90.00;;;;;;5114482;28;20413;-70
2022/06/06 07:31:48;;;;;;;0.40;0.40;;;22.60;87.70;;;;;;5114448;27;20783;-69
2022/06/06 07:34:32;;;;;;;0.30;0.30;;;22.00;90.50;;;;;;5114174;28;20874;-70
2022/06/06 07:37:21;;;;;;;0.40;0.40;;;21.50;90.90;;;;;;5114375;28;20404;-69
2022/06/06 07:39:56;;;;;;;0.30;0.30;;;21.00;90.50;;;;;;5114256;28;20760;-69
2022/06/06 07:42:40;;;;;;;0.30;0.30;;;20.60;92.00;;;;;;5114069;28;20438;-70
2022/06/06 07:45:24;;;;;;;0.37;0.37;;;20.20;92.20;;;;;;5114380;27;20409;-69
2022/06/06 07:48:02;;;;;;;0.40;0.40;;;20.20;92.60;;;;;;5114521;28;20483;-69
2022/06/06 07:50:42;;;;;;;0.30;0.30;;;20.10;92.90;;;;;;5114251;28;20398;-69
2022/06/06 07:53:35;;;;;;;0.40;0.40;;;19.80;92.50;;;;;;5113885;28;20421;-69
2022/06/06 07:56:12;;;;;;;0.50;0.50;;;19.80;93.60;;;;;;5114223;28;20405;-69
2022/06/06 07:59:05;;;;;;;0.30;0.30;;;19.90;92.80;;;;;;5114277;28;20484;-68
2022/06/06 08:02:18;;;;;;;0.40;0.40;;;20.00;93.30;;;;;;5113966;28;20474;-69
2022/06/06 08:05:05;;;;;;;0.30;0.30;;;20.20;92.50;;;;;;5114162;28;20395;-70
2022/06/06 08:07:48;;;;;;;0.30;0.30;;;20.50;94.00;;;;;;5113818;28;20450;-69
2022/06/06 08:10:38;;;;;;;0.30;0.30;;;21.00;93.10;;;;;;5114301;28;20406;-70
2022/06/06 08:13:22;;;;;;;0.37;0.37;;;21.10;92.00;;;;;;5113702;28;20438;-69
2022/06/06 08:15:53;;;;;;;0.30;0.30;;;20.90;91.80;;;;;;5114043;28;20490;-70
2022/06/06 08:18:30;;;;;;;0.30;0.30;;;20.50;93.30;;;;;;5113848;28;20865;-70
2022/06/06 08:21:14;;;;;;;0.50;0.50;;;20.50;94.10;;;;;;5113873;28;20417;-70
2022/06/06 08:23:42;;;;;;;0.30;0.30;;;20.60;94.10;;;;;;5113360;28;20453;-70
2022/06/06 08:26:08;;;;;;;0.30;0.30;;;20.50;92.40;;;;;;5113845;28;20460;-70
2022/06/06 08:28:39;;;;;;;0.30;0.30;;;20.40;92.70;;;;;;5113661;28;20743;-68
2022/06/06 08:31:06;;;;;;;0.40;0.40;;;20.50;93.20;;;;;;5113745;28;20174;-69
2022/06/06 08:33:31;;;;;;;0.50;0.50;;;20.60;92.60;;;;;;5113985;28;20395;-70
2022/06/06 08:36:11;;;;;;;0.40;0.40;;;21.00;93.50;;;;;;5113719;28;20768;-70
2022/06/06 08:38:58;;;;;;;0.40;0.40;;;21.10;90.50;;;;;;5113804;28;20179;-69
2022/06/06 08:41:45;;;;;;;0.40;0.40;;;21.10;91.60;;;;;;5113877;28;20748;-69
2022/06/06 08:44:26;;;;;;;0.30;0.30;;;21.10;92.70;;;;;;5113562;28;20399;-70
2022/06/06 08:47:04;;;;;;;0.30;0.30;;;21.10;92.70;;;;;;5113666;28;20447;-69
2022/06/06 08:53:03;;;;;;;0.30;0.30;;;21.10;90.60;;;;;;5115792;28;20460;-69
2022/06/06 08:56:23;;;;;;;0.67;0.67;;;21.40;92.50;;;;;;5117558;28;20403;-71
2022/06/06 08:59:10;;;;;;;0.30;0.30;;;21.50;92.10;;;;;;5074623;28;20831;-70
2022/06/06 09:01:47;;;;;;;0.30;0.30;;;21.20;90.80;;;;;;5114463;28;20797;-69
2022/06/06 09:04:54;;;;;;;0.30;0.30;;;21.20;91.10;;;;;;5116983;28;20418;-68
2022/06/06 09:07:32;;;;;;;0.30;0.30;;;21.10;91.10;;;;;;5115330;28;20997;-70
2022/06/06 09:10:47;;;;;;;0.40;0.40;;;20.80;91.00;;;;;;5117514;28;20747;-69
2022/06/06 09:13:41;;;;;;;0.30;0.30;;;21.00;91.10;;;;;;5116731;28;20422;-70
2022/06/06 09:16:07;;;;;;;0.40;0.40;;;21.60;90.70;;;;;;5117040;28;20401;-68
2022/06/06 09:18:44;;;;;;;0.30;0.30;;;22.30;90.70;;;;;;5116812;28;20398;-69
2022/06/06 09:21:55;;;;;;;0.50;0.50;;;22.80;90.80;;;;;;5116988;28;20703;-69
2022/06/06 09:24:24;;;;;;;0.30;0.30;;;22.90;90.50;;;;;;5116426;28;20487;-69
2022/06/06 09:27:19;;;;;;;0.57;0.57;;;22.80;87.30;;;;;;5116614;28;20796;-69
2022/06/06 09:30:12;;;;;;;0.40;0.40;;;22.90;90.60;;;;;;5115496;28;20916;-69
2022/06/06 09:32:54;;;;;;;0.30;0.30;;;22.60;85.80;;;;;;5116377;28;20509;-70
2022/06/06 09:35:50;;;;;;;0.30;0.30;;;22.80;87.40;;;;;;5116391;28;20768;-70
2022/06/06 09:38:44;;;;;;;0.30;0.30;;;22.90;90.20;;;;;;5116605;28;20398;-70
2022/06/06 09:41:34;;;;;;;0.30;0.30;;;23.10;89.30;;;;;;5116339;28;20406;-70
2022/06/06 09:44:03;;;;;;;0.30;0.30;;;23.30;91.90;;;;;;5116351;28;20419;-70
2022/06/06 09:46:48;;;;;;;0.40;0.40;;;23.70;83.50;;;;;;5116494;28;20527;-69
2022/06/06 09:49:35;;;;;;;0.40;0.40;;;24.20;86.40;;;;;;5116483;28;20373;-70
2022/06/06 09:52:12;;;;;;;0.30;0.30;;;24.70;83.90;;;;;;5116016;28;20406;-70
2022/06/06 10:01:08;;;;;;;0.30;0.30;;;25.80;77.80;;;;;;5116274;28;20367;-70
2022/06/06 10:03:52;;;;;;;0.40;0.40;;;25.30;81.10;;;;;;5114883;28;20376;-69
2022/06/06 10:06:39;;;;;;;0.40;0.40;;;25.00;79.90;;;;;;5115900;27;21001;-70
2022/06/06 10:09:26;;;;;;;0.70;0.70;;;24.30;80.70;;;;;;5115977;28;20375;-70
2022/06/06 10:12:07;;;;;;;0.30;0.30;;;24.60;79.70;;;;;;5115840;28;20426;-70
2022/06/06 10:14:57;;;;;;;0.30;0.30;;;25.00;77.90;;;;;;5116015;27;20368;-69
2022/06/06 10:18:17;;;;;;;0.30;0.30;;;25.20;78.80;;;;;;5115793;28;20760;-70
2022/06/06 10:20:48;;;;;;;0.30;0.30;;;24.90;74.10;;;;;;5073426;28;20756;-70
2022/06/06 10:23:38;;;;;;;0.30;0.30;;;24.30;78.90;;;;;;5113811;28;20442;-69
2022/06/06 10:26:12;;;;;;;0.30;0.30;;;24.40;79.70;;;;;;5115628;28;20511;-69
2022/06/06 10:29:08;;;;;;;0.43;0.43;;;24.50;81.00;;;;;;5115739;28;20794;-70
2022/06/06 10:32:10;;;;;;;0.30;0.30;;;24.30;81.30;;;;;;5115545;28;20414;-71
2022/06/06 10:34:47;;;;;;;0.30;0.30;;;24.50;81.00;;;;;;5115508;28;20415;-70
2022/06/06 10:37:46;;;;;;;0.40;0.40;;;24.50;79.40;;;;;;5115512;28;20734;-70
2022/06/06 10:40:48;;;;;;;0.30;0.30;;;24.20;76.90;;;;;;5115537;28;20864;-70
2022/06/06 10:43:41;;;;;;;0.30;0.30;;;23.60;74.90;;;;;;5113664;28;20434;-69
2022/06/06 10:46:10;;;;;;;0.30;0.30;;;23.50;79.90;;;;;;5114455;28;20484;-70
2022/06/06 10:49:11;;;;;;;0.50;0.50;;;23.30;82.10;;;;;;5115306;28;20432;-69
2022/06/06 10:52:16;;;;;;;0.30;0.30;;;22.90;82.40;;;;;;5115113;28;20470;-70
2022/06/06 10:54:53;;;;;;;0.30;0.30;;;22.60;83.40;;;;;;5115424;28;20902;-70
2022/06/06 10:57:52;;;;;;;0.50;0.50;;;22.90;83.40;;;;;;5115231;28;20368;-69
2022/06/06 11:00:24;;;;;;;0.30;0.30;;;22.90;82.30;;;;;;5115264;28;20373;-70
2022/06/06 11:03:27;;;;;;;0.30;0.30;;;22.80;86.30;;;;;;5114567;28;20421;-70
2022/06/06 11:05:59;;;;;;;0.30;0.30;;;23.20;82.80;;;;;;5114818;28;20402;-69
2022/06/06 11:08:46;;;;;;;0.30;0.30;;;23.30;82.80;;;;;;5114691;28;20487;-69
2022/06/06 11:11:35;;;;;;;1.03;0.90;;;23.70;90.80;;;;;;5114626;28;20402;-70
2022/06/06 11:14:33;;;;;;;0.30;0.30;;;23.10;88.60;;;;;;5114356;28;20735;-70
2022/06/06 11:17:20;;;;;;;0.30;0.30;;;23.10;84.30;;;;;;5110068;28;20511;-69
2022/06/06 11:20:03;;;;;;;0.30;0.30;;;22.80;81.10;;;;;;5114597;28;20489;-70
2022/06/06 11:22:43;;;;;;;0.60;0.60;;;23.00;86.10;;;;;;5114191;28;20839;-70
2022/06/06 11:25:21;;;;;;;0.30;0.30;;;23.10;87.60;;;;;;5114554;28;20798;-70
2022/06/06 11:28:13;;;;;;;0.30;0.30;;;22.90;82.70;;;;;;5114577;27;20487;-69
2022/06/06 11:31:10;;;;;;;0.30;0.30;;;22.90;83.90;;;;;;5114753;28;20824;-70
2022/06/06 11:33:41;;;;;;;0.30;0.30;;;22.90;86.30;;;;;;5114145;28;20380;-70
2022/06/06 11:36:44;;;;;;;0.30;0.30;;;23.00;83.10;;;;;;5114346;28;20405;-70
2022/06/06 11:39:44;;;;;;;0.30;0.30;;;23.10;83.10;;;;;;5114589;28;20409;-70
2022/06/06 11:42:22;;;;;;;0.30;0.30;;;23.40;80.50;;;;;;5113952;28;20789;-70
2022/06/06 11:45:00;;;;;;;0.40;0.40;;;23.30;81.30;;;;;;5114239;28;20775;-70
2022/06/06 11:47:51;;;;;;;0.30;0.30;;;23.30;83.90;;;;;;5114225;28;20420;-70
2022/06/06 11:50:54;;;;;;;0.50;0.50;;;23.00;79.90;;;;;;5114586;28;20410;-70
2022/06/06 11:53:40;;;;;;;0.30;0.30;;;22.80;87.30;;;;;;5113761;28;20437;-70
2022/06/06 11:56:18;;;;;;;0.30;0.30;;;22.70;86.60;;;;;;5114290;28;20390;-70
2022/06/06 11:59:10;;;;;;;0.50;0.50;;;22.60;82.70;;;;;;5114019;28;20390;-70
2022/06/06 12:02:13;;;;;;;0.30;0.30;;;22.60;85.00;;;;;;5114086;28;20912;-69
2022/06/06 12:05:02;;;;;;;0.30;0.30;;;23.00;88.60;;;;;;5114109;28;20401;-70
2022/06/06 12:07:46;;;;;;;0.40;0.40;;;23.20;80.20;;;;;;5113626;28;20464;-70
2022/06/06 12:10:47;;;;;;;0.30;0.30;;;23.10;81.40;;;;;;5113977;28;20897;-70
2022/06/06 12:13:41;;;;;;;0.30;0.30;;;23.00;83.60;;;;;;5106369;28;20426;-70
2022/06/06 12:16:21;;;;;;;0.30;0.30;;;22.70;80.80;;;;;;5094890;28;20789;-68
2022/06/06 12:18:58;;;;;;;0.57;0.57;;;22.40;82.20;;;;;;5112765;28;20926;-70
2022/06/06 12:21:45;;;;;;;0.30;0.30;;;22.30;82.40;;;;;;5113900;28;20418;-69
2022/06/06 12:24:25;;;;;;;0.30;0.30;;;22.60;84.60;;;;;;5113595;28;20446;-70
2022/06/06 12:27:02;;;;;;;0.30;0.30;;;22.70;84.40;;;;;;5115309;28;20510;-71
2022/06/06 12:30:05;;;;;;;0.30;0.30;;;22.90;85.90;;;;;;5118125;28;20503;-69
2022/06/06 12:32:42;;;;;;;0.50;0.50;;;23.10;84.20;;;;;;5117521;28;20816;-70
2022/06/06 12:35:21;;;;;;;0.50;0.50;;;23.20;85.60;;;;;;5117798;28;20397;-70
2022/06/06 12:37:51;;;;;;;0.60;0.60;;;23.20;86.50;;;;;;5117780;28;20413;-71
2022/06/06 12:40:36;;;;;;;0.60;0.60;;;23.40;82.30;;;;;;5117825;27;20373;-70
2022/06/06 12:43:23;;;;;;;0.30;0.30;;;23.40;82.30;;;;;;5117772;28;20409;-69
2022/06/06 12:46:12;;;;;;;0.53;0.53;;;23.50;83.50;;;;;;5117626;28;20364;-70
2022/06/06 12:48:59;;;;;;;0.30;0.30;;;23.70;82.40;;;;;;5117674;28;20394;-69
2022/06/06 12:51:55;;;;;;;0.30;0.30;;;23.30;80.50;;;;;;5117399;28;20437;-69
2022/06/06 12:54:29;;;;;;;0.30;0.30;;;23.30;84.80;;;;;;5117410;28;20376;-70
2022/06/06 12:56:58;;;;;;;0.30;0.30;;;23.40;83.30;;;;;;5117504;27;20806;-70
2022/06/06 12:59:39;;;;;;;0.60;0.60;;;23.50;81.90;;;;;;5117261;28;20409;-69
2022/06/06 13:02:24;;;;;;;0.60;0.60;;;23.20;81.40;;;;;;5117229;28;20403;-70
2022/06/06 13:05:09;;;;;;;0.30;0.30;;;23.20;78.50;;;;;;5117326;28;20484;-69
2022/06/06 13:07:46;;;;;;;0.40;0.40;;;22.90;79.00;;;;;;5117260;28;20446;-70
2022/06/06 13:10:17;;;;;;;0.40;0.40;;;23.00;79.70;;;;;;5117122;28;20388;-70
2022/06/06 13:13:15;;;;;;;0.50;0.50;;;23.10;81.40;;;;;;5116789;28;20418;-69
2022/06/06 13:15:41;;;;;;;0.50;0.50;;;22.90;81.90;;;;;;5117177;28;20397;-69
2022/06/06 13:18:43;;;;;;;0.30;0.30;;;22.60;80.80;;;;;;5116991;28;20837;-70
2022/06/06 13:21:32;;;;;;;0.40;0.40;;;22.60;82.40;;;;;;5117132;28;20175;-70
2022/06/06 13:24:29;;;;;;;0.30;0.30;;;22.90;86.10;;;;;;5116556;28;20396;-68
2022/06/06 13:27:31;;;;;;;0.30;0.30;;;23.00;84.00;;;;;;5117062;28;20449;-70
2022/06/06 13:30:24;;;;;;;0.30;0.30;;;22.80;86.00;;;;;;5116927;28;20767;-69
2022/06/06 13:33:04;;;;;;;0.40;0.40;;;22.90;83.40;;;;;;5116469;28;20389;-69
2022/06/06 13:35:44;;;;;;;0.30;0.30;;;23.00;86.10;;;;;;5116699;27;20772;-69
2022/06/06 13:38:29;;;;;;;0.30;0.30;;;23.00;87.00;;;;;;5115136;28;20398;-70
2022/06/06 13:41:24;;;;;;;0.67;0.67;;;23.10;82.40;;;;;;5116538;27;20408;-70
2022/06/06 13:44:02;;;;;;;0.50;0.50;;;23.10;83.20;;;;;;5116494;28;20419;-70
2022/06/06 13:46:53;;;;;;;0.30;0.30;;;23.00;84.00;;;;;;5116618;28;20520;-70
2022/06/06 13:49:56;;;;;;;0.30;0.30;;;23.00;87.50;;;;;;5116620;28;20402;-69
2022/06/06 13:52:44;;;;;;;0.30;0.30;;;23.00;86.90;;;;;;5116128;28;20453;-70
2022/06/06 13:55:24;;;;;;;0.30;0.30;;;23.00;82.20;;;;;;5116415;28;20401;-70
2022/06/06 13:58:08;;;;;;;0.40;0.40;;;23.10;83.00;;;;;;5116157;28;20402;-70
2022/06/06 14:00:46;;;;;;;0.40;0.40;;;23.20;84.60;;;;;;5116246;28;20845;-68
2022/06/06 14:03:30;;;;;;;0.30;0.30;;;22.80;82.70;;;;;;5114595;28;20437;-70
2022/06/06 14:06:10;;;;;;;0.30;0.30;;;21.90;85.40;;;;;;5116407;28;20400;-70
2022/06/06 14:08:56;;;;;;;0.40;0.40;;;22.00;87.70;;;;;;5116110;28;20408;-70
2022/06/06 14:11:31;;;;;;;0.30;0.30;;;22.10;89.20;;;;;;5115796;28;20479;-70
2022/06/06 14:13:59;;;;;;;0.30;0.30;;;22.00;83.90;;;;;;5115663;28;20401;-70
2022/06/06 14:16:41;;;;;;;0.50;0.50;;;22.10;86.40;;;;;;5115796;28;20941;-70
2022/06/06 14:19:16;;;;;;;0.30;0.30;;;22.50;88.60;;;;;;5115757;28;20401;-70
2022/06/06 14:22:01;;;;;;;0.30;0.30;;;22.70;86.70;;;;;;5115565;28;20435;-69